sensor_id;sensor_type;location;lat;lon;timestamp;pressure;altitude;pressure_sealevel;temperature;humidity
37710;BME280;60223;34.854;-92.408;2023-02-04T00:01:37;102396.53;;;23.20;25.33
37710;BME280;60223;34.854;-92.408;2023-02-04T00:04:02;102400.55;;;23.41;25.29
37710;BME280;60223;34.854;-92.408;2023-02-04T00:06:28;102399.85;;;23.15;25.28
37710;BME280;60223;34.854;-92.408;2023-02-04T00:08:51;102396.95;;;23.11;25.38
37710;BME280;60223;34.854;-92.408;2023-02-04T00:11:17;102397.83;;;23.53;24.95
37710;BME280;60223;34.854;-92.408;2023-02-04T00:13:45;102393.84;;;23.29;25.37
37710;BME280;60223;34.854;-92.408;2023-02-04T00:16:10;102394.61;;;23.63;25.29
37710;BME280;60223;34.854;-92.408;2023-02-04T00:18:36;102396.35;;;23.32;25.34
37710;BME280;60223;34.854;-92.408;2023-02-04T00:21:02;102400.23;;;23.54;25.34
37710;BME280;60223;34.854;-92.408;2023-02-04T00:23:27;102398.78;;;23.23;25.33
37710;BME280;60223;34.854;-92.408;2023-02-04T00:25:54;102397.65;;;23.64;25.42
37710;BME280;60223;34.854;-92.408;2023-02-04T00:28:19;102400.78;;;23.12;25.50
37710;BME280;60223;34.854;-92.408;2023-02-04T00:30:42;102396.98;;;23.28;25.55
37710;BME280;60223;34.854;-92.408;2023-02-04T00:33:11;102399.57;;;23.22;25.58
37710;BME280;60223;34.854;-92.408;2023-02-04T00:35:37;102404.93;;;23.18;25.65
37710;BME280;60223;34.854;-92.408;2023-02-04T00:38:01;102405.78;;;23.31;25.65
37710;BME280;60223;34.854;-92.408;2023-02-04T00:40:28;102408.76;;;23.25;25.72
37710;BME280;60223;34.854;-92.408;2023-02-04T00:42:53;102406.74;;;23.57;25.59
37710;BME280;60223;34.854;-92.408;2023-02-04T00:45:19;102400.29;;;23.50;25.57
37710;BME280;60223;34.854;-92.408;2023-02-04T00:47:44;102397.17;;;23.48;25.48
37710;BME280;60223;34.854;-92.408;2023-02-04T00:50:11;102393.55;;;23.39;25.49
37710;BME280;60223;34.854;-92.408;2023-02-04T00:52:36;102390.40;;;23.33;25.59
37710;BME280;60223;34.854;-92.408;2023-02-04T00:55:02;102388.52;;;23.29;25.67
37710;BME280;60223;34.854;-92.408;2023-02-04T00:57:27;102387.00;;;23.23;25.69
37710;BME280;60223;34.854;-92.408;2023-02-04T00:59:53;102385.93;;;23.13;25.70
37710;BME280;60223;34.854;-92.408;2023-02-04T01:02:19;102381.64;;;23.07;25.76
37710;BME280;60223;34.854;-92.408;2023-02-04T01:04:45;102379.78;;;23.36;25.69
37710;BME280;60223;34.854;-92.408;2023-02-04T01:07:08;102373.29;;;23.44;25.73
37710;BME280;60223;34.854;-92.408;2023-02-04T01:09:36;102368.65;;;23.25;25.63
37710;BME280;60223;34.854;-92.408;2023-02-04T01:12:02;102363.12;;;23.62;25.55
37710;BME280;60223;34.854;-92.408;2023-02-04T01:14:27;102362.43;;;23.42;25.46
37710;BME280;60223;34.854;-92.408;2023-02-04T01:16:50;102363.16;;;23.10;25.41
37710;BME280;60223;34.854;-92.408;2023-02-04T01:19:19;102362.70;;;23.23;25.54
37710;BME280;60223;34.854;-92.408;2023-02-04T01:21:44;102358.18;;;23.58;25.49
37710;BME280;60223;34.854;-92.408;2023-02-04T01:24:10;102361.68;;;23.22;25.63
37710;BME280;60223;34.854;-92.408;2023-02-04T01:26:36;102363.60;;;23.01;25.80
37710;BME280;60223;34.854;-92.408;2023-02-04T01:29:01;102367.88;;;23.32;25.62
37710;BME280;60223;34.854;-92.408;2023-02-04T01:31:27;102371.35;;;23.36;25.76
37710;BME280;60223;34.854;-92.408;2023-02-04T01:33:53;102370.03;;;23.06;25.73
37710;BME280;60223;34.854;-92.408;2023-02-04T01:36:19;102369.30;;;23.22;25.59
37710;BME280;60223;34.854;-92.408;2023-02-04T01:38:44;102373.53;;;23.18;25.55
37710;BME280;60223;34.854;-92.408;2023-02-04T01:41:10;102376.12;;;23.17;25.45
37710;BME280;60223;34.854;-92.408;2023-02-04T01:43:37;102379.49;;;23.29;25.53
37710;BME280;60223;34.854;-92.408;2023-02-04T01:46:01;102380.99;;;23.19;25.68
37710;BME280;60223;34.854;-92.408;2023-02-04T01:48:27;102382.55;;;22.91;25.76
37710;BME280;60223;34.854;-92.408;2023-02-04T01:50:56;102383.69;;;22.81;25.79
37710;BME280;60223;34.854;-92.408;2023-02-04T01:53:23;102385.39;;;22.87;25.72
37710;BME280;60223;34.854;-92.408;2023-02-04T01:55:45;102379.63;;;22.97;25.66
37710;BME280;60223;34.854;-92.408;2023-02-04T01:58:12;102376.77;;;23.25;25.60
37710;BME280;60223;34.854;-92.408;2023-02-04T02:00:36;102375.27;;;22.81;25.58
37710;BME280;60223;34.854;-92.408;2023-02-04T02:03:01;102375.99;;;23.25;25.47
37710;BME280;60223;34.854;-92.408;2023-02-04T02:05:30;102378.32;;;22.91;25.53
37710;BME280;60223;34.854;-92.408;2023-02-04T02:07:54;102377.57;;;23.09;25.61
37710;BME280;60223;34.854;-92.408;2023-02-04T02:10:18;102381.63;;;22.77;25.72
37710;BME280;60223;34.854;-92.408;2023-02-04T02:12:44;102385.93;;;22.97;25.73
37710;BME280;60223;34.854;-92.408;2023-02-04T02:15:11;102393.79;;;22.90;25.86
37710;BME280;60223;34.854;-92.408;2023-02-04T02:17:36;102404.62;;;22.87;25.86
37710;BME280;60223;34.854;-92.408;2023-02-04T02:20:01;102410.30;;;23.26;25.73
37710;BME280;60223;34.854;-92.408;2023-02-04T02:22:31;102410.66;;;22.87;25.83
37710;BME280;60223;34.854;-92.408;2023-02-04T02:24:53;102413.69;;;23.42;25.27
37710;BME280;60223;34.854;-92.408;2023-02-04T02:27:18;102413.14;;;23.41;25.36
37710;BME280;60223;34.854;-92.408;2023-02-04T02:29:45;102409.98;;;23.13;25.52
37710;BME280;60223;34.854;-92.408;2023-02-04T02:32:11;102406.16;;;23.14;25.11
37710;BME280;60223;34.854;-92.408;2023-02-04T02:34:36;102398.39;;;23.38;24.95
37710;BME280;60223;34.854;-92.408;2023-02-04T02:37:01;102396.04;;;23.30;25.19
37710;BME280;60223;34.854;-92.408;2023-02-04T02:39:28;102393.87;;;23.52;25.27
37710;BME280;60223;34.854;-92.408;2023-02-04T02:41:53;102395.12;;;23.35;25.27
37710;BME280;60223;34.854;-92.408;2023-02-04T02:44:16;102399.03;;;23.63;25.14
37710;BME280;60223;34.854;-92.408;2023-02-04T02:46:44;102401.26;;;23.49;25.20
37710;BME280;60223;34.854;-92.408;2023-02-04T02:51:35;102385.24;;;23.34;25.58
37710;BME280;60223;34.854;-92.408;2023-02-04T02:54:01;102383.99;;;23.43;25.30
37710;BME280;60223;34.854;-92.408;2023-02-04T02:56:27;102378.45;;;23.53;24.93
37710;BME280;60223;34.854;-92.408;2023-02-04T02:58:52;102381.52;;;23.58;25.26
37710;BME280;60223;34.854;-92.408;2023-02-04T03:01:19;102375.82;;;23.02;25.24
37710;BME280;60223;34.854;-92.408;2023-02-04T03:03:48;102375.35;;;23.36;25.32
37710;BME280;60223;34.854;-92.408;2023-02-04T03:06:13;102374.75;;;22.93;25.46
37710;BME280;60223;34.854;-92.408;2023-02-04T03:08:35;102379.60;;;22.83;25.32
37710;BME280;60223;34.854;-92.408;2023-02-04T03:11:00;102376.77;;;22.95;25.47
37710;BME280;60223;34.854;-92.408;2023-02-04T03:13:27;102371.77;;;23.31;25.29
37710;BME280;60223;34.854;-92.408;2023-02-04T03:15:52;102367.54;;;23.15;25.18
37710;BME280;60223;34.854;-92.408;2023-02-04T03:18:20;102367.41;;;23.42;25.05
37710;BME280;60223;34.854;-92.408;2023-02-04T03:20:45;102364.13;;;23.37;24.87
37710;BME280;60223;34.854;-92.408;2023-02-04T03:23:08;102357.43;;;23.03;25.08
37710;BME280;60223;34.854;-92.408;2023-02-04T03:25:35;102353.53;;;22.93;25.19
37710;BME280;60223;34.854;-92.408;2023-02-04T03:28:00;102346.76;;;23.09;25.33
37710;BME280;60223;34.854;-92.408;2023-02-04T03:30:27;102347.98;;;22.97;25.39
37710;BME280;60223;34.854;-92.408;2023-02-04T03:32:52;102358.04;;;22.77;25.63
37710;BME280;60223;34.854;-92.408;2023-02-04T03:35:18;102364.83;;;22.71;25.57
37710;BME280;60223;34.854;-92.408;2023-02-04T03:37:43;102359.33;;;22.70;25.52
37710;BME280;60223;34.854;-92.408;2023-02-04T03:40:10;102360.47;;;22.85;25.45
37710;BME280;60223;34.854;-92.408;2023-02-04T03:42:35;102364.38;;;22.95;25.22
37710;BME280;60223;34.854;-92.408;2023-02-04T03:44:59;102368.44;;;22.93;25.05
37710;BME280;60223;34.854;-92.408;2023-02-04T03:47:26;102368.45;;;22.88;24.84
37710;BME280;60223;34.854;-92.408;2023-02-04T03:49:51;102368.41;;;23.18;24.63
37710;BME280;60223;34.854;-92.408;2023-02-04T03:52:18;102370.81;;;23.29;24.63
37710;BME280;60223;34.854;-92.408;2023-02-04T03:54:43;102374.33;;;23.09;24.68
37710;BME280;60223;34.854;-92.408;2023-02-04T03:57:09;102377.20;;;23.41;24.56
37710;BME280;60223;34.854;-92.408;2023-02-04T03:59:35;102386.53;;;23.15;24.55
37710;BME280;60223;34.854;-92.408;2023-02-04T04:02:01;102396.17;;;23.00;24.63
37710;BME280;60223;34.854;-92.408;2023-02-04T04:04:26;102397.91;;;23.20;24.64
37710;BME280;60223;34.854;-92.408;2023-02-04T04:06:49;102392.78;;;23.20;24.61
37710;BME280;60223;34.854;-92.408;2023-02-04T04:09:17;102380.66;;;22.95;24.58
37710;BME280;60223;34.854;-92.408;2023-02-04T04:11:44;102386.11;;;23.07;24.41
37710;BME280;60223;34.854;-92.408;2023-02-04T04:14:08;102397.30;;;23.13;24.33
37710;BME280;60223;34.854;-92.408;2023-02-04T04:16:35;102405.39;;;23.39;24.28
37710;BME280;60223;34.854;-92.408;2023-02-04T04:19:00;102409.17;;;23.41;24.25
37710;BME280;60223;34.854;-92.408;2023-02-04T04:21:26;102414.81;;;23.43;24.21
37710;BME280;60223;34.854;-92.408;2023-02-04T04:23:52;102426.74;;;23.10;24.27
37710;BME280;60223;34.854;-92.408;2023-02-04T04:26:17;102431.70;;;23.34;24.25
37710;BME280;60223;34.854;-92.408;2023-02-04T04:28:43;102433.62;;;23.15;24.41
37710;BME280;60223;34.854;-92.408;2023-02-04T04:31:08;102433.70;;;22.88;24.39
37710;BME280;60223;34.854;-92.408;2023-02-04T04:33:34;102433.88;;;22.90;24.35
37710;BME280;60223;34.854;-92.408;2023-02-04T04:35:58;102432.18;;;23.12;24.23
37710;BME280;60223;34.854;-92.408;2023-02-04T04:38:26;102437.58;;;23.14;24.21
37710;BME280;60223;34.854;-92.408;2023-02-04T04:40:50;102437.42;;;22.86;24.21
37710;BME280;60223;34.854;-92.408;2023-02-04T04:43:17;102426.68;;;22.82;24.20
37710;BME280;60223;34.854;-92.408;2023-02-04T04:45:43;102421.28;;;23.12;24.14
37710;BME280;60223;34.854;-92.408;2023-02-04T04:48:06;102421.43;;;23.05;24.16
37710;BME280;60223;34.854;-92.408;2023-02-04T04:50:34;102421.26;;;22.84;24.36
37710;BME280;60223;34.854;-92.408;2023-02-04T04:52:58;102416.56;;;22.64;24.50
37710;BME280;60223;34.854;-92.408;2023-02-04T04:55:26;102414.69;;;22.83;24.32
37710;BME280;60223;34.854;-92.408;2023-02-04T04:57:51;102405.20;;;22.79;24.33
37710;BME280;60223;34.854;-92.408;2023-02-04T05:00:19;102402.48;;;22.67;24.39
37710;BME280;60223;34.854;-92.408;2023-02-04T05:02:42;102401.02;;;22.35;24.62
37710;BME280;60223;34.854;-92.408;2023-02-04T05:05:09;102399.44;;;22.56;24.40
37710;BME280;60223;34.854;-92.408;2023-02-04T05:07:34;102395.40;;;22.49;24.40
37710;BME280;60223;34.854;-92.408;2023-02-04T05:09:59;102390.58;;;22.65;24.43
37710;BME280;60223;34.854;-92.408;2023-02-04T05:12:25;102391.69;;;22.27;24.52
37710;BME280;60223;34.854;-92.408;2023-02-04T05:14:51;102388.59;;;22.38;24.56
37710;BME280;60223;34.854;-92.408;2023-02-04T05:17:15;102380.69;;;21.74;25.10
37710;BME280;60223;34.854;-92.408;2023-02-04T05:19:43;102379.04;;;22.03;24.81
37710;BME280;60223;34.854;-92.408;2023-02-04T05:22:08;102375.98;;;22.12;24.65
37710;BME280;60223;34.854;-92.408;2023-02-04T05:24:31;102369.99;;;21.88;24.79
37710;BME280;60223;34.854;-92.408;2023-02-04T05:27:00;102359.96;;;21.90;24.76
37710;BME280;60223;34.854;-92.408;2023-02-04T05:29:26;102354.69;;;22.15;24.70
37710;BME280;60223;34.854;-92.408;2023-02-04T05:31:50;102351.60;;;21.74;24.91
37710;BME280;60223;34.854;-92.408;2023-02-04T05:34:17;102348.75;;;21.91;25.12
37710;BME280;60223;34.854;-92.408;2023-02-04T05:36:43;102348.47;;;21.69;25.48
37710;BME280;60223;34.854;-92.408;2023-02-04T05:39:09;102353.12;;;21.87;25.72
37710;BME280;60223;34.854;-92.408;2023-02-04T05:41:34;102356.94;;;21.92;25.99
37710;BME280;60223;34.854;-92.408;2023-02-04T05:44:00;102354.91;;;21.58;26.33
37710;BME280;60223;34.854;-92.408;2023-02-04T05:46:26;102356.07;;;21.39;26.64
37710;BME280;60223;34.854;-92.408;2023-02-04T05:48:52;102354.17;;;21.66;26.78
37710;BME280;60223;34.854;-92.408;2023-02-04T05:51:18;102348.41;;;21.52;26.95
37710;BME280;60223;34.854;-92.408;2023-02-04T05:53:42;102346.39;;;21.76;26.77
37710;BME280;60223;34.854;-92.408;2023-02-04T05:56:09;102337.85;;;21.59;26.98
37710;BME280;60223;34.854;-92.408;2023-02-04T05:58:34;102334.03;;;21.54;27.27
37710;BME280;60223;34.854;-92.408;2023-02-04T06:00:58;102331.38;;;21.29;27.25
37710;BME280;60223;34.854;-92.408;2023-02-04T06:03:26;102328.76;;;21.24;27.29
37710;BME280;60223;34.854;-92.408;2023-02-04T06:05:49;102328.58;;;21.10;27.38
37710;BME280;60223;34.854;-92.408;2023-02-04T06:08:18;102330.45;;;21.20;27.23
37710;BME280;60223;34.854;-92.408;2023-02-04T06:10:43;102322.71;;;20.86;27.55
37710;BME280;60223;34.854;-92.408;2023-02-04T06:13:09;102314.56;;;21.14;27.45
37710;BME280;60223;34.854;-92.408;2023-02-04T06:15:35;102308.51;;;21.19;27.35
37710;BME280;60223;34.854;-92.408;2023-02-04T06:18:01;102303.35;;;21.52;27.22
37710;BME280;60223;34.854;-92.408;2023-02-04T06:20:26;102301.35;;;21.35;27.34
37710;BME280;60223;34.854;-92.408;2023-02-04T06:22:51;102297.44;;;21.21;27.42
37710;BME280;60223;34.854;-92.408;2023-02-04T06:25:15;102301.45;;;20.91;27.43
37710;BME280;60223;34.854;-92.408;2023-02-04T06:27:43;102306.65;;;20.80;27.29
37710;BME280;60223;34.854;-92.408;2023-02-04T06:30:10;102311.66;;;21.15;27.30
37710;BME280;60223;34.854;-92.408;2023-02-04T06:32:34;102319.85;;;20.79;27.38
37710;BME280;60223;34.854;-92.408;2023-02-04T06:35:00;102320.01;;;20.82;27.33
37710;BME280;60223;34.854;-92.408;2023-02-04T06:37:26;102315.69;;;20.78;27.25
37710;BME280;60223;34.854;-92.408;2023-02-04T06:39:52;102309.14;;;20.73;27.29
37710;BME280;60223;34.854;-92.408;2023-02-04T06:42:17;102301.62;;;21.08;27.08
37710;BME280;60223;34.854;-92.408;2023-02-04T06:44:42;102303.99;;;20.87;27.25
37710;BME280;60223;34.854;-92.408;2023-02-04T06:47:09;102301.28;;;20.47;27.34
37710;BME280;60223;34.854;-92.408;2023-02-04T06:49:34;102295.69;;;20.84;27.16
37710;BME280;60223;34.854;-92.408;2023-02-04T06:52:01;102293.75;;;20.77;27.17
37710;BME280;60223;34.854;-92.408;2023-02-04T06:54:26;102291.40;;;20.62;27.22
37710;BME280;60223;34.854;-92.408;2023-02-04T06:56:52;102284.71;;;20.65;27.13
37710;BME280;60223;34.854;-92.408;2023-02-04T06:59:18;102285.28;;;20.50;27.21
37710;BME280;60223;34.854;-92.408;2023-02-04T07:01:43;102288.42;;;20.29;27.33
37710;BME280;60223;34.854;-92.408;2023-02-04T07:04:09;102292.40;;;20.28;27.08
37710;BME280;60223;34.854;-92.408;2023-02-04T07:06:35;102288.84;;;20.52;27.05
37710;BME280;60223;34.854;-92.408;2023-02-04T07:09:01;102289.59;;;20.61;27.05
37710;BME280;60223;34.854;-92.408;2023-02-04T07:11:26;102285.17;;;20.36;27.00
37710;BME280;60223;34.854;-92.408;2023-02-04T07:13:52;102280.76;;;20.26;27.03
37710;BME280;60223;34.854;-92.408;2023-02-04T07:16:18;102285.74;;;20.20;27.05
37710;BME280;60223;34.854;-92.408;2023-02-04T07:18:44;102284.51;;;20.08;27.10
37710;BME280;60223;34.854;-92.408;2023-02-04T07:21:09;102280.76;;;20.16;26.97
37710;BME280;60223;34.854;-92.408;2023-02-04T07:23:35;102284.16;;;20.26;27.05
37710;BME280;60223;34.854;-92.408;2023-02-04T07:26:01;102286.05;;;20.19;26.85
37710;BME280;60223;34.854;-92.408;2023-02-04T07:28:27;102292.99;;;19.96;26.98
37710;BME280;60223;34.854;-92.408;2023-02-04T07:30:53;102295.82;;;19.86;27.04
37710;BME280;60223;34.854;-92.408;2023-02-04T07:33:18;102291.79;;;19.83;26.99
37710;BME280;60223;34.854;-92.408;2023-02-04T07:35:44;102288.24;;;20.27;26.77
37710;BME280;60223;34.854;-92.408;2023-02-04T07:38:10;102285.39;;;19.94;26.77
37710;BME280;60223;34.854;-92.408;2023-02-04T07:40:35;102284.62;;;20.21;26.49
37710;BME280;60223;34.854;-92.408;2023-02-04T07:43:01;102286.82;;;20.02;26.84
37710;BME280;60223;34.854;-92.408;2023-02-04T07:45:28;102285.09;;;20.20;26.80
37710;BME280;60223;34.854;-92.408;2023-02-04T07:47:53;102283.67;;;19.76;26.75
37710;BME280;60223;34.854;-92.408;2023-02-04T07:50:19;102286.85;;;19.78;26.86
37710;BME280;60223;34.854;-92.408;2023-02-04T07:52:43;102284.11;;;19.73;26.70
37710;BME280;60223;34.854;-92.408;2023-02-04T07:55:11;102277.74;;;19.71;26.86
37710;BME280;60223;34.854;-92.408;2023-02-04T07:57:36;102268.34;;;19.50;26.77
37710;BME280;60223;34.854;-92.408;2023-02-04T08:00:03;102264.08;;;19.65;26.83
37710;BME280;60223;34.854;-92.408;2023-02-04T08:02:27;102256.82;;;19.64;26.77
37710;BME280;60223;34.854;-92.408;2023-02-04T08:04:54;102244.37;;;19.95;26.64
37710;BME280;60223;34.854;-92.408;2023-02-04T08:07:20;102237.41;;;19.69;26.86
37710;BME280;60223;34.854;-92.408;2023-02-04T08:09:45;102229.48;;;19.98;26.53
37710;BME280;60223;34.854;-92.408;2023-02-04T08:12:11;102222.72;;;20.12;26.37
37710;BME280;60223;34.854;-92.408;2023-02-04T08:14:37;102229.63;;;19.59;26.79
37710;BME280;60223;34.854;-92.408;2023-02-04T08:17:03;102235.89;;;19.40;26.66
37710;BME280;60223;34.854;-92.408;2023-02-04T08:19:29;102235.51;;;19.78;26.51
37710;BME280;60223;34.854;-92.408;2023-02-04T08:21:51;102235.18;;;19.61;26.63
37710;BME280;60223;34.854;-92.408;2023-02-04T08:24:20;102238.79;;;19.73;26.47
37710;BME280;60223;34.854;-92.408;2023-02-04T08:26:47;102239.42;;;19.33;26.79
37710;BME280;60223;34.854;-92.408;2023-02-04T08:29:11;102235.66;;;19.13;26.92
37710;BME280;60223;34.854;-92.408;2023-02-04T08:31:37;102230.22;;;19.63;26.42
37710;BME280;60223;34.854;-92.408;2023-02-04T08:34:04;102229.09;;;19.20;26.78
37710;BME280;60223;34.854;-92.408;2023-02-04T08:36:28;102222.92;;;19.36;26.56
37710;BME280;60223;34.854;-92.408;2023-02-04T08:38:55;102218.74;;;19.49;26.20
37710;BME280;60223;34.854;-92.408;2023-02-04T08:41:20;102211.04;;;19.37;26.67
37710;BME280;60223;34.854;-92.408;2023-02-04T08:43:46;102208.03;;;19.27;26.52
37710;BME280;60223;34.854;-92.408;2023-02-04T08:46:13;102195.31;;;19.06;26.65
37710;BME280;60223;34.854;-92.408;2023-02-04T08:48:37;102187.73;;;19.04;26.60
37710;BME280;60223;34.854;-92.408;2023-02-04T08:51:04;102178.99;;;19.46;26.19
37710;BME280;60223;34.854;-92.408;2023-02-04T08:53:29;102172.53;;;19.21;26.35
37710;BME280;60223;34.854;-92.408;2023-02-04T08:55:56;102157.89;;;19.20;26.30
37710;BME280;60223;34.854;-92.408;2023-02-04T08:58:21;102147.76;;;19.03;26.41
37710;BME280;60223;34.854;-92.408;2023-02-04T09:00:47;102134.17;;;19.30;26.11
37710;BME280;60223;34.854;-92.408;2023-02-04T09:03:13;102131.50;;;19.04;26.31
37710;BME280;60223;34.854;-92.408;2023-02-04T09:05:39;102130.28;;;18.87;26.44
37710;BME280;60223;34.854;-92.408;2023-02-04T09:08:04;102124.40;;;19.00;26.29
37710;BME280;60223;34.854;-92.408;2023-02-04T09:10:29;102124.00;;;19.36;26.35
37710;BME280;60223;34.854;-92.408;2023-02-04T09:12:56;102130.00;;;18.97;26.45
37710;BME280;60223;34.854;-92.408;2023-02-04T09:15:22;102129.47;;;18.60;26.51
37710;BME280;60223;34.854;-92.408;2023-02-04T09:17:47;102133.35;;;18.76;26.32
37710;BME280;60223;34.854;-92.408;2023-02-04T09:20:14;102137.25;;;19.05;26.26
37710;BME280;60223;34.854;-92.408;2023-02-04T09:22:39;102133.24;;;18.30;26.66
37710;BME280;60223;34.854;-92.408;2023-02-04T09:25:02;102134.25;;;18.79;26.40
37710;BME280;60223;34.854;-92.408;2023-02-04T09:27:28;102132.94;;;19.21;25.98
37710;BME280;60223;34.854;-92.408;2023-02-04T09:29:56;102133.65;;;18.53;26.51
37710;BME280;60223;34.854;-92.408;2023-02-04T09:32:21;102139.27;;;18.49;26.35
37710;BME280;60223;34.854;-92.408;2023-02-04T09:34:48;102143.75;;;18.85;26.18
37710;BME280;60223;34.854;-92.408;2023-02-04T09:37:14;102141.97;;;18.50;26.22
37710;BME280;60223;34.854;-92.408;2023-02-04T09:39:40;102140.36;;;18.98;26.21
37710;BME280;60223;34.854;-92.408;2023-02-04T09:42:05;102146.63;;;18.99;26.16
37710;BME280;60223;34.854;-92.408;2023-02-04T09:44:32;102145.77;;;18.60;26.04
37710;BME280;60223;34.854;-92.408;2023-02-04T09:46:57;102148.00;;;18.54;26.26
37710;BME280;60223;34.854;-92.408;2023-02-04T09:49:23;102150.43;;;18.48;26.51
37710;BME280;60223;34.854;-92.408;2023-02-04T09:51:49;102147.28;;;18.48;26.28
37710;BME280;60223;34.854;-92.408;2023-02-04T09:54:16;102144.98;;;18.25;26.46
37710;BME280;60223;34.854;-92.408;2023-02-04T09:56:41;102138.76;;;18.90;26.06
37710;BME280;60223;34.854;-92.408;2023-02-04T09:59:09;102138.71;;;18.28;26.61
37710;BME280;60223;34.854;-92.408;2023-02-04T10:01:31;102137.33;;;18.37;26.49
37710;BME280;60223;34.854;-92.408;2023-02-04T10:04:00;102140.59;;;18.39;26.43
37710;BME280;60223;34.854;-92.408;2023-02-04T10:06:24;102139.43;;;18.25;26.31
37710;BME280;60223;34.854;-92.408;2023-02-04T10:08:50;102144.09;;;18.41;26.12
37710;BME280;60223;34.854;-92.408;2023-02-04T10:11:16;102146.22;;;18.18;26.26
37710;BME280;60223;34.854;-92.408;2023-02-04T10:13:41;102147.70;;;18.54;26.14
37710;BME280;60223;34.854;-92.408;2023-02-04T10:16:11;102148.07;;;18.12;26.44
37710;BME280;60223;34.854;-92.408;2023-02-04T10:18:34;102141.21;;;18.53;26.06
37710;BME280;60223;34.854;-92.408;2023-02-04T10:21:00;102137.29;;;18.23;26.24
37710;BME280;60223;34.854;-92.408;2023-02-04T10:23:25;102139.91;;;18.41;26.11
37710;BME280;60223;34.854;-92.408;2023-02-04T10:25:49;102141.96;;;18.33;25.90
37710;BME280;60223;34.854;-92.408;2023-02-04T10:28:16;102143.30;;;18.16;26.05
37710;BME280;60223;34.854;-92.408;2023-02-04T10:30:42;102147.56;;;18.25;26.13
37710;BME280;60223;34.854;-92.408;2023-02-04T10:33:21;102150.26;;;18.47;25.90
37710;BME280;60223;34.854;-92.408;2023-02-04T10:35:30;102147.77;;;18.43;25.88
37710;BME280;60223;34.854;-92.408;2023-02-04T10:38:08;102145.32;;;18.12;26.14
37710;BME280;60223;34.854;-92.408;2023-02-04T10:40:29;102141.87;;;17.72;26.26
37710;BME280;60223;34.854;-92.408;2023-02-04T10:42:51;102139.19;;;17.69;26.26
37710;BME280;60223;34.854;-92.408;2023-02-04T10:45:22;102139.40;;;18.09;26.08
37710;BME280;60223;34.854;-92.408;2023-02-04T10:47:49;102139.68;;;18.56;25.64
37710;BME280;60223;34.854;-92.408;2023-02-04T10:50:16;102136.92;;;18.03;26.34
37710;BME280;60223;34.854;-92.408;2023-02-04T10:52:38;102138.18;;;18.17;27.01
37710;BME280;60223;34.854;-92.408;2023-02-04T10:54:57;102136.71;;;18.55;26.80
37710;BME280;60223;34.854;-92.408;2023-02-04T10:57:27;102133.39;;;18.96;26.21
37710;BME280;60223;34.854;-92.408;2023-02-04T10:59:53;102131.58;;;18.79;26.36
37710;BME280;60223;34.854;-92.408;2023-02-04T11:04:43;102130.11;;;19.28;25.93
37710;BME280;60223;34.854;-92.408;2023-02-04T11:07:11;102127.32;;;18.91;26.06
37710;BME280;60223;34.854;-92.408;2023-02-04T11:09:35;102123.95;;;18.35;26.47
37710;BME280;60223;34.854;-92.408;2023-02-04T11:12:01;102124.16;;;18.86;26.39
37710;BME280;60223;34.854;-92.408;2023-02-04T11:14:29;102125.56;;;18.95;26.01
37710;BME280;60223;34.854;-92.408;2023-02-04T11:16:53;102124.41;;;18.52;26.10
37710;BME280;60223;34.854;-92.408;2023-02-04T11:19:28;102126.71;;;18.72;26.07
37710;BME280;60223;34.854;-92.408;2023-02-04T11:21:45;102122.93;;;19.42;25.40
37710;BME280;60223;34.854;-92.408;2023-02-04T11:24:22;102123.73;;;18.28;26.10
37710;BME280;60223;34.854;-92.408;2023-02-04T11:26:36;102127.74;;;19.39;25.27
37710;BME280;60223;34.854;-92.408;2023-02-04T11:29:09;102131.82;;;18.47;26.10
37710;BME280;60223;34.854;-92.408;2023-02-04T11:31:41;102141.86;;;18.26;26.23
37710;BME280;60223;34.854;-92.408;2023-02-04T11:34:06;102144.49;;;18.60;25.88
37710;BME280;60223;34.854;-92.408;2023-02-04T11:36:20;102145.33;;;18.55;25.89
37710;BME280;60223;34.854;-92.408;2023-02-04T11:38:48;102135.91;;;18.38;25.97
37710;BME280;60223;34.854;-92.408;2023-02-04T11:41:17;102134.43;;;18.34;26.00
37710;BME280;60223;34.854;-92.408;2023-02-04T11:43:37;102134.03;;;18.73;25.69
37710;BME280;60223;34.854;-92.408;2023-02-04T11:46:09;102144.07;;;18.69;25.57
37710;BME280;60223;34.854;-92.408;2023-02-04T11:48:29;102146.49;;;18.87;25.45
37710;BME280;60223;34.854;-92.408;2023-02-04T11:50:59;102140.36;;;19.35;25.07
37710;BME280;60223;34.854;-92.408;2023-02-04T11:53:20;102146.77;;;19.00;25.34
37710;BME280;60223;34.854;-92.408;2023-02-04T11:55:48;102145.35;;;19.09;25.22
37710;BME280;60223;34.854;-92.408;2023-02-04T11:58:17;102141.22;;;19.40;25.21
37710;BME280;60223;34.854;-92.408;2023-02-04T12:00:36;102147.29;;;18.90;25.38
37710;BME280;60223;34.854;-92.408;2023-02-04T12:03:05;102146.25;;;19.12;25.20
37710;BME280;60223;34.854;-92.408;2023-02-04T12:05:39;102146.94;;;19.04;25.08
37710;BME280;60223;34.854;-92.408;2023-02-04T12:07:54;102145.81;;;19.33;25.04
37710;BME280;60223;34.854;-92.408;2023-02-04T12:10:26;102147.45;;;19.16;24.83
37710;BME280;60223;34.854;-92.408;2023-02-04T12:12:48;102143.25;;;19.45;24.83
37710;BME280;60223;34.854;-92.408;2023-02-04T12:15:20;102142.27;;;19.59;24.76
37710;BME280;60223;34.854;-92.408;2023-02-04T12:17:36;102143.45;;;19.53;24.73
37710;BME280;60223;34.854;-92.408;2023-02-04T12:20:04;102147.44;;;19.23;25.17
37710;BME280;60223;34.854;-92.408;2023-02-04T12:22:30;102151.74;;;19.37;25.02
37710;BME280;60223;34.854;-92.408;2023-02-04T12:24:56;102151.45;;;19.84;24.73
37710;BME280;60223;34.854;-92.408;2023-02-04T12:27:21;102148.18;;;19.99;24.64